sensor_id;sensor_type;location;lat;lon;timestamp;pressure;altitude;pressure_sealevel;temperature;humidity
31771;BME280;18343;50.152;8.182;2023-03-14T00:01:27;95508.59;;;10.59;100.00
31771;BME280;18343;50.152;8.182;2023-03-14T00:04:12;95523.56;;;10.55;100.00
31771;BME280;18343;50.152;8.182;2023-03-14T00:06:57;95527.75;;;10.51;100.00
31771;BME280;18343;50.152;8.182;2023-03-14T00:09:43;95532.13;;;10.40;100.00
31771;BME280;18343;50.152;8.182;2023-03-14T00:12:27;95530.44;;;10.63;100.00
31771;BME280;18343;50.152;8.182;2023-03-14T00:15:13;95517.47;;;10.60;100.00
31771;BME280;18343;50.152;8.182;2023-03-14T00:17:57;95521.69;;;10.56;100.00
31771;BME280;18343;50.152;8.182;2023-03-14T00:20:42;95532.66;;;10.54;100.00
31771;BME280;18343;50.152;8.182;2023-03-14T00:23:27;95535.97;;;10.44;100.00
31771;BME280;18343;50.152;8.182;2023-03-14T00:26:16;95531.97;;;10.47;100.00
31771;BME280;18343;50.152;8.182;2023-03-14T00:29:00;95528.78;;;10.62;100.00
31771;BME280;18343;50.152;8.182;2023-03-14T00:31:45;95512.53;;;10.28;100.00
31771;BME280;18343;50.152;8.182;2023-03-14T00:34:30;95516.19;;;10.50;100.00
31771;BME280;18343;50.152;8.182;2023-03-14T00:37:15;95492.72;;;10.74;100.00
31771;BME280;18343;50.152;8.182;2023-03-14T00:40:00;95488.75;;;10.77;100.00
31771;BME280;18343;50.152;8.182;2023-03-14T00:42:46;95475.84;;;10.62;100.00
31771;BME280;18343;50.152;8.182;2023-03-14T00:45:30;95468.78;;;10.73;100.00
31771;BME280;18343;50.152;8.182;2023-03-14T00:48:15;95458.34;;;10.76;100.00
31771;BME280;18343;50.152;8.182;2023-03-14T00:51:00;95451.34;;;10.75;100.00
31771;BME280;18343;50.152;8.182;2023-03-14T00:53:45;95454.22;;;10.85;100.00
31771;BME280;18343;50.152;8.182;2023-03-14T00:56:31;95447.84;;;10.75;100.00
31771;BME280;18343;50.152;8.182;2023-03-14T00:59:17;95456.97;;;10.74;100.00
31771;BME280;18343;50.152;8.182;2023-03-14T01:02:01;95469.59;;;10.73;100.00
31771;BME280;18343;50.152;8.182;2023-03-14T01:04:48;95470.88;;;10.71;100.00
31771;BME280;18343;50.152;8.182;2023-03-14T01:07:33;95476.13;;;10.77;100.00
31771;BME280;18343;50.152;8.182;2023-03-14T01:10:18;95468.53;;;10.46;100.00
31771;BME280;18343;50.152;8.182;2023-03-14T01:13:03;95475.44;;;10.70;100.00
31771;BME280;18343;50.152;8.182;2023-03-14T01:15:49;95472.28;;;10.05;100.00
31771;BME280;18343;50.152;8.182;2023-03-14T01:18:35;95469.50;;;10.00;100.00
31771;BME280;18343;50.152;8.182;2023-03-14T01:21:26;95459.63;;;10.17;100.00
31771;BME280;18343;50.152;8.182;2023-03-14T01:24:12;95471.88;;;10.36;100.00
31771;BME280;18343;50.152;8.182;2023-03-14T01:26:57;95460.91;;;10.55;100.00
31771;BME280;18343;50.152;8.182;2023-03-14T01:29:42;95467.81;;;10.50;100.00
31771;BME280;18343;50.152;8.182;2023-03-14T01:32:28;95464.44;;;10.55;100.00
31771;BME280;18343;50.152;8.182;2023-03-14T01:35:13;95452.50;;;10.34;100.00
31771;BME280;18343;50.152;8.182;2023-03-14T01:37:58;95452.16;;;10.31;100.00
31771;BME280;18343;50.152;8.182;2023-03-14T01:40:43;95446.72;;;10.42;100.00
31771;BME280;18343;50.152;8.182;2023-03-14T01:43:29;95447.28;;;10.44;100.00
31771;BME280;18343;50.152;8.182;2023-03-14T01:46:39;95441.38;;;9.91;100.00
31771;BME280;18343;50.152;8.182;2023-03-14T01:49:28;95438.94;;;10.29;100.00
31771;BME280;18343;50.152;8.182;2023-03-14T01:52:17;95426.91;;;10.32;100.00
31771;BME280;18343;50.152;8.182;2023-03-14T01:55:06;95423.44;;;10.20;100.00
31771;BME280;18343;50.152;8.182;2023-03-14T01:57:55;95404.47;;;9.98;100.00
31771;BME280;18343;50.152;8.182;2023-03-14T02:00:43;95420.00;;;9.96;100.00
31771;BME280;18343;50.152;8.182;2023-03-14T02:03:30;95395.28;;;10.22;100.00
31771;BME280;18343;50.152;8.182;2023-03-14T02:06:21;95403.16;;;10.12;100.00
31771;BME280;18343;50.152;8.182;2023-03-14T02:09:08;95403.22;;;10.17;100.00
31771;BME280;18343;50.152;8.182;2023-03-14T02:11:53;95377.34;;;10.11;100.00
31771;BME280;18343;50.152;8.182;2023-03-14T02:14:39;95373.44;;;10.18;100.00
31771;BME280;18343;50.152;8.182;2023-03-14T02:17:25;95379.03;;;9.89;100.00
31771;BME280;18343;50.152;8.182;2023-03-14T02:20:30;95358.19;;;9.79;100.00
31771;BME280;18343;50.152;8.182;2023-03-14T02:23:27;95368.03;;;10.02;100.00
31771;BME280;18343;50.152;8.182;2023-03-14T02:26:21;95353.66;;;10.08;100.00
31771;BME280;18343;50.152;8.182;2023-03-14T02:29:11;95356.00;;;10.04;100.00
31771;BME280;18343;50.152;8.182;2023-03-14T02:31:55;95346.13;;;10.22;100.00
31771;BME280;18343;50.152;8.182;2023-03-14T02:34:40;95358.94;;;10.31;100.00
31771;BME280;18343;50.152;8.182;2023-03-14T02:37:34;95355.47;;;9.91;100.00
31771;BME280;18343;50.152;8.182;2023-03-14T02:40:20;95356.00;;;10.04;100.00
31771;BME280;18343;50.152;8.182;2023-03-14T02:43:04;95381.13;;;9.98;100.00
31771;BME280;18343;50.152;8.182;2023-03-14T02:45:52;95369.31;;;9.99;100.00
31771;BME280;18343;50.152;8.182;2023-03-14T02:48:41;95376.84;;;10.14;100.00
31771;BME280;18343;50.152;8.182;2023-03-14T02:51:28;95379.88;;;10.17;100.00
31771;BME280;18343;50.152;8.182;2023-03-14T02:54:14;95376.28;;;9.83;100.00
31771;BME280;18343;50.152;8.182;2023-03-14T02:56:59;95378.59;;;10.20;100.00
31771;BME280;18343;50.152;8.182;2023-03-14T02:59:44;95383.09;;;10.03;100.00
31771;BME280;18343;50.152;8.182;2023-03-14T03:02:30;95374.97;;;10.26;100.00
31771;BME280;18343;50.152;8.182;2023-03-14T03:05:15;95378.66;;;10.37;100.00
31771;BME280;18343;50.152;8.182;2023-03-14T03:08:00;95386.19;;;10.40;100.00
31771;BME280;18343;50.152;8.182;2023-03-14T03:10:45;95384.03;;;10.37;100.00
31771;BME280;18343;50.152;8.182;2023-03-14T03:13:29;95389.22;;;10.43;100.00
31771;BME280;18343;50.152;8.182;2023-03-14T03:16:14;95379.53;;;10.42;100.00
31771;BME280;18343;50.152;8.182;2023-03-14T03:19:00;95383.34;;;10.30;100.00
31771;BME280;18343;50.152;8.182;2023-03-14T03:21:44;95378.56;;;10.32;100.00
31771;BME280;18343;50.152;8.182;2023-03-14T03:24:29;95357.31;;;10.18;100.00
31771;BME280;18343;50.152;8.182;2023-03-14T03:27:13;95346.88;;;10.05;100.00
31771;BME280;18343;50.152;8.182;2023-03-14T03:29:57;95356.16;;;10.26;100.00
31771;BME280;18343;50.152;8.182;2023-03-14T03:32:42;95353.72;;;10.13;100.00
31771;BME280;18343;50.152;8.182;2023-03-14T03:35:28;95336.50;;;10.09;100.00
31771;BME280;18343;50.152;8.182;2023-03-14T03:38:13;95348.53;;;10.06;100.00
31771;BME280;18343;50.152;8.182;2023-03-14T03:40:58;95331.06;;;9.92;100.00
31771;BME280;18343;50.152;8.182;2023-03-14T03:43:42;95333.75;;;10.21;100.00
31771;BME280;18343;50.152;8.182;2023-03-14T03:46:27;95335.28;;;9.88;100.00
31771;BME280;18343;50.152;8.182;2023-03-14T03:49:13;95322.03;;;9.98;100.00
31771;BME280;18343;50.152;8.182;2023-03-14T03:52:00;95317.75;;;10.14;100.00
31771;BME280;18343;50.152;8.182;2023-03-14T03:54:45;95306.69;;;10.10;100.00
31771;BME280;18343;50.152;8.182;2023-03-14T03:57:29;95292.75;;;10.25;100.00
31771;BME280;18343;50.152;8.182;2023-03-14T04:00:14;95288.78;;;9.99;100.00
31771;BME280;18343;50.152;8.182;2023-03-14T04:02:59;95299.41;;;10.23;100.00
31771;BME280;18343;50.152;8.182;2023-03-14T04:05:43;95300.41;;;10.33;100.00
31771;BME280;18343;50.152;8.182;2023-03-14T04:08:30;95294.03;;;10.23;100.00
31771;BME280;18343;50.152;8.182;2023-03-14T04:11:14;95292.66;;;10.20;100.00
31771;BME280;18343;50.152;8.182;2023-03-14T04:13:59;95294.81;;;10.06;100.00
31771;BME280;18343;50.152;8.182;2023-03-14T04:16:43;95286.69;;;10.18;100.00
31771;BME280;18343;50.152;8.182;2023-03-14T04:19:28;95289.00;;;9.98;100.00
31771;BME280;18343;50.152;8.182;2023-03-14T04:22:12;95293.09;;;10.00;100.00
31771;BME280;18343;50.152;8.182;2023-03-14T04:24:58;95294.13;;;9.82;100.00
31771;BME280;18343;50.152;8.182;2023-03-14T04:27:43;95293.72;;;9.91;100.00
31771;BME280;18343;50.152;8.182;2023-03-14T04:30:27;95296.09;;;10.04;100.00
31771;BME280;18343;50.152;8.182;2023-03-14T04:33:12;95289.69;;;10.05;100.00
31771;BME280;18343;50.152;8.182;2023-03-14T04:35:56;95281.44;;;9.66;100.00
31771;BME280;18343;50.152;8.182;2023-03-14T04:38:41;95277.22;;;9.99;100.00
31771;BME280;18343;50.152;8.182;2023-03-14T04:41:27;95279.31;;;9.97;100.00
31771;BME280;18343;50.152;8.182;2023-03-14T04:44:11;95280.03;;;9.92;100.00
31771;BME280;18343;50.152;8.182;2023-03-14T04:46:56;95279.75;;;10.05;100.00
31771;BME280;18343;50.152;8.182;2023-03-14T04:49:41;95262.09;;;10.09;100.00
31771;BME280;18343;50.152;8.182;2023-03-14T04:52:27;95261.13;;;10.15;100.00
31771;BME280;18343;50.152;8.182;2023-03-14T04:55:11;95255.50;;;10.17;100.00
31771;BME280;18343;50.152;8.182;2023-03-14T04:57:57;95248.38;;;10.23;100.00
31771;BME280;18343;50.152;8.182;2023-03-14T05:00:42;95248.94;;;10.25;100.00
31771;BME280;18343;50.152;8.182;2023-03-14T05:03:27;95261.28;;;10.09;100.00
31771;BME280;18343;50.152;8.182;2023-03-14T05:06:11;95264.19;;;9.62;100.00
31771;BME280;18343;50.152;8.182;2023-03-14T05:08:56;95268.34;;;9.53;100.00
31771;BME280;18343;50.152;8.182;2023-03-14T05:11:41;95268.47;;;9.75;100.00
31771;BME280;18343;50.152;8.182;2023-03-14T05:14:27;95268.09;;;10.00;100.00
31771;BME280;18343;50.152;8.182;2023-03-14T05:17:12;95265.44;;;10.16;100.00
31771;BME280;18343;50.152;8.182;2023-03-14T05:19:57;95270.09;;;10.21;100.00
31771;BME280;18343;50.152;8.182;2023-03-14T05:22:41;95266.25;;;10.17;100.00
31771;BME280;18343;50.152;8.182;2023-03-14T05:25:26;95264.03;;;10.14;100.00
31771;BME280;18343;50.152;8.182;2023-03-14T05:28:11;95275.44;;;10.04;100.00
31771;BME280;18343;50.152;8.182;2023-03-14T05:30:57;95266.97;;;10.12;100.00
31771;BME280;18343;50.152;8.182;2023-03-14T05:33:41;95260.16;;;10.05;100.00
31771;BME280;18343;50.152;8.182;2023-03-14T05:36:26;95246.06;;;9.98;100.00
31771;BME280;18343;50.152;8.182;2023-03-14T05:39:11;95245.25;;;10.14;100.00
31771;BME280;18343;50.152;8.182;2023-03-14T05:41:56;95228.16;;;10.03;100.00
31771;BME280;18343;50.152;8.182;2023-03-14T05:44:43;95236.03;;;9.93;100.00
31771;BME280;18343;50.152;8.182;2023-03-14T05:47:29;95213.25;;;9.96;100.00
31771;BME280;18343;50.152;8.182;2023-03-14T05:50:14;95225.69;;;9.85;100.00
31771;BME280;18343;50.152;8.182;2023-03-14T05:52:58;95216.28;;;9.82;100.00
31771;BME280;18343;50.152;8.182;2023-03-14T05:55:45;95222.03;;;9.74;100.00
31771;BME280;18343;50.152;8.182;2023-03-14T05:58:30;95217.09;;;9.83;100.00
31771;BME280;18343;50.152;8.182;2023-03-14T06:01:15;95203.50;;;10.06;100.00
31771;BME280;18343;50.152;8.182;2023-03-14T06:04:02;95197.00;;;10.02;100.00
31771;BME280;18343;50.152;8.182;2023-03-14T06:06:47;95199.94;;;9.84;100.00
31771;BME280;18343;50.152;8.182;2023-03-14T06:09:31;95208.19;;;9.66;100.00
31771;BME280;18343;50.152;8.182;2023-03-14T06:12:16;95210.16;;;9.70;100.00
31771;BME280;18343;50.152;8.182;2023-03-14T06:15:01;95200.31;;;9.93;100.00
31771;BME280;18343;50.152;8.182;2023-03-14T06:17:45;95208.31;;;10.04;100.00
31771;BME280;18343;50.152;8.182;2023-03-14T06:20:31;95203.19;;;10.03;100.00
31771;BME280;18343;50.152;8.182;2023-03-14T06:23:16;95204.25;;;10.02;100.00
31771;BME280;18343;50.152;8.182;2023-03-14T06:26:00;95198.53;;;9.98;100.00
31771;BME280;18343;50.152;8.182;2023-03-14T06:28:45;95200.47;;;9.86;100.00
31771;BME280;18343;50.152;8.182;2023-03-14T06:31:29;95203.06;;;9.64;100.00
31771;BME280;18343;50.152;8.182;2023-03-14T06:34:14;95202.06;;;9.54;100.00
31771;BME280;18343;50.152;8.182;2023-03-14T06:37:02;95201.63;;;9.90;100.00
31771;BME280;18343;50.152;8.182;2023-03-14T06:39:47;95200.97;;;10.00;100.00
31771;BME280;18343;50.152;8.182;2023-03-14T06:42:31;95213.34;;;10.01;100.00
31771;BME280;18343;50.152;8.182;2023-03-14T06:45:16;95208.16;;;10.11;100.00
31771;BME280;18343;50.152;8.182;2023-03-14T06:48:01;95205.16;;;9.62;100.00
31771;BME280;18343;50.152;8.182;2023-03-14T06:50:47;95201.13;;;9.93;100.00
31771;BME280;18343;50.152;8.182;2023-03-14T06:53:33;95203.56;;;9.78;100.00
31771;BME280;18343;50.152;8.182;2023-03-14T06:56:17;95192.59;;;9.79;100.00
31771;BME280;18343;50.152;8.182;2023-03-14T06:59:02;95197.91;;;10.08;100.00
31771;BME280;18343;50.152;8.182;2023-03-14T07:01:46;95186.16;;;10.14;100.00
31771;BME280;18343;50.152;8.182;2023-03-14T07:04:31;95197.41;;;9.94;100.00
31771;BME280;18343;50.152;8.182;2023-03-14T07:07:15;95199.28;;;10.10;100.00
31771;BME280;18343;50.152;8.182;2023-03-14T07:10:01;95201.16;;;10.10;100.00
31771;BME280;18343;50.152;8.182;2023-03-14T07:12:45;95191.66;;;10.19;100.00
31771;BME280;18343;50.152;8.182;2023-03-14T07:15:30;95199.47;;;10.37;100.00
31771;BME280;18343;50.152;8.182;2023-03-14T07:18:15;95208.69;;;10.13;100.00
31771;BME280;18343;50.152;8.182;2023-03-14T07:20:59;95200.59;;;10.08;100.00
31771;BME280;18343;50.152;8.182;2023-03-14T07:23:43;95207.59;;;10.09;100.00
31771;BME280;18343;50.152;8.182;2023-03-14T07:26:29;95224.75;;;10.08;100.00
31771;BME280;18343;50.152;8.182;2023-03-14T07:29:14;95206.78;;;10.25;100.00
31771;BME280;18343;50.152;8.182;2023-03-14T07:31:58;95211.72;;;10.16;100.00
31771;BME280;18343;50.152;8.182;2023-03-14T07:34:43;95210.84;;;10.11;100.00
31771;BME280;18343;50.152;8.182;2023-03-14T07:37:27;95202.28;;;10.14;100.00
31771;BME280;18343;50.152;8.182;2023-03-14T07:40:12;95210.63;;;10.29;100.00
31771;BME280;18343;50.152;8.182;2023-03-14T07:42:58;95214.81;;;10.08;100.00
31771;BME280;18343;50.152;8.182;2023-03-14T07:45:46;95225.16;;;10.16;100.00
31771;BME280;18343;50.152;8.182;2023-03-14T07:48:30;95221.19;;;10.36;100.00
31771;BME280;18343;50.152;8.182;2023-03-14T07:51:15;95217.38;;;10.32;100.00
31771;BME280;18343;50.152;8.182;2023-03-14T07:53:59;95220.16;;;10.37;100.00
31771;BME280;18343;50.152;8.182;2023-03-14T07:56:44;95225.81;;;10.40;100.00
31771;BME280;18343;50.152;8.182;2023-03-14T07:59:33;95223.81;;;10.31;100.00
31771;BME280;18343;50.152;8.182;2023-03-14T08:02:17;95223.72;;;10.26;100.00
31771;BME280;18343;50.152;8.182;2023-03-14T08:05:02;95224.00;;;10.12;100.00
31771;BME280;18343;50.152;8.182;2023-03-14T08:07:47;95220.69;;;10.22;100.00
31771;BME280;18343;50.152;8.182;2023-03-14T08:15:38;95207.53;;;10.37;100.00
31771;BME280;18343;50.152;8.182;2023-03-14T08:18:23;95207.72;;;10.52;100.00
31771;BME280;18343;50.152;8.182;2023-03-14T08:21:07;95206.19;;;10.57;100.00
31771;BME280;18343;50.152;8.182;2023-03-14T08:23:52;95205.47;;;10.44;100.00
31771;BME280;18343;50.152;8.182;2023-03-14T08:26:36;95207.34;;;10.27;100.00
31771;BME280;18343;50.152;8.182;2023-03-14T08:29:21;95202.78;;;10.44;100.00
31771;BME280;18343;50.152;8.182;2023-03-14T08:32:07;95218.84;;;10.39;100.00
31771;BME280;18343;50.152;8.182;2023-03-14T08:34:52;95218.00;;;10.56;100.00
31771;BME280;18343;50.152;8.182;2023-03-14T08:37:36;95215.78;;;10.52;100.00
31771;BME280;18343;50.152;8.182;2023-03-14T08:40:21;95232.09;;;10.63;100.00
31771;BME280;18343;50.152;8.182;2023-03-14T08:43:06;95218.41;;;10.47;100.00
31771;BME280;18343;50.152;8.182;2023-03-14T08:45:50;95208.88;;;10.57;100.00
31771;BME280;18343;50.152;8.182;2023-03-14T08:48:36;95222.06;;;10.58;100.00
31771;BME280;18343;50.152;8.182;2023-03-14T08:51:21;95231.16;;;10.74;100.00
31771;BME280;18343;50.152;8.182;2023-03-14T08:54:05;95231.59;;;10.66;100.00
31771;BME280;18343;50.152;8.182;2023-03-14T08:56:50;95239.78;;;10.76;100.00
31771;BME280;18343;50.152;8.182;2023-03-14T08:59:34;95235.34;;;10.65;100.00
31771;BME280;18343;50.152;8.182;2023-03-14T09:02:19;95238.28;;;10.63;100.00
31771;BME280;18343;50.152;8.182;2023-03-14T09:05:07;95234.97;;;10.39;100.00
31771;BME280;18343;50.152;8.182;2023-03-14T09:07:51;95233.97;;;10.29;100.00
31771;BME280;18343;50.152;8.182;2023-03-14T09:10:36;95244.47;;;10.47;100.00
31771;BME280;18343;50.152;8.182;2023-03-14T09:13:21;95244.34;;;10.75;100.00
31771;BME280;18343;50.152;8.182;2023-03-14T09:16:07;95234.78;;;10.63;100.00
31771;BME280;18343;50.152;8.182;2023-03-14T09:18:52;95239.09;;;10.64;100.00
31771;BME280;18343;50.152;8.182;2023-03-14T09:21:38;95246.38;;;10.85;100.00
31771;BME280;18343;50.152;8.182;2023-03-14T09:24:23;95250.19;;;10.89;100.00
31771;BME280;18343;50.152;8.182;2023-03-14T09:27:10;95258.25;;;10.89;100.00
31771;BME280;18343;50.152;8.182;2023-03-14T09:29:55;95246.19;;;10.92;100.00
31771;BME280;18343;50.152;8.182;2023-03-14T09:32:39;95249.69;;;10.92;100.00
31771;BME280;18343;50.152;8.182;2023-03-14T09:35:24;95248.06;;;10.91;100.00
31771;BME280;18343;50.152;8.182;2023-03-14T09:38:10;95253.50;;;10.96;100.00
31771;BME280;18343;50.152;8.182;2023-03-14T09:40:55;95258.75;;;10.86;100.00
31771;BME280;18343;50.152;8.182;2023-03-14T09:43:42;95266.00;;;10.69;100.00
31771;BME280;18343;50.152;8.182;2023-03-14T09:46:29;95259.66;;;10.75;100.00
31771;BME280;18343;50.152;8.182;2023-03-14T09:49:21;95258.06;;;10.96;100.00
31771;BME280;18343;50.152;8.182;2023-03-14T09:52:13;95257.47;;;11.10;100.00
31771;BME280;18343;50.152;8.182;2023-03-14T09:55:03;95253.88;;;10.83;100.00
31771;BME280;18343;50.152;8.182;2023-03-14T09:57:51;95250.06;;;11.01;100.00
31771;BME280;18343;50.152;8.182;2023-03-14T10:00:39;95245.81;;;10.83;100.00
31771;BME280;18343;50.152;8.182;2023-03-14T10:03:31;95235.94;;;10.89;100.00
31771;BME280;18343;50.152;8.182;2023-03-14T10:06:16;95236.44;;;11.07;100.00
31771;BME280;18343;50.152;8.182;2023-03-14T10:09:01;95238.13;;;11.13;100.00
31771;BME280;18343;50.152;8.182;2023-03-14T10:11:48;95229.75;;;10.88;100.00
31771;BME280;18343;50.152;8.182;2023-03-14T10:14:36;95234.00;;;11.06;100.00
31771;BME280;18343;50.152;8.182;2023-03-14T10:17:21;95233.09;;;10.78;100.00
31771;BME280;18343;50.152;8.182;2023-03-14T10:20:06;95235.88;;;10.83;100.00
31771;BME280;18343;50.152;8.182;2023-03-14T10:22:51;95239.00;;;10.97;100.00
31771;BME280;18343;50.152;8.182;2023-03-14T10:25:38;95246.31;;;11.02;100.00
31771;BME280;18343;50.152;8.182;2023-03-14T10:28:27;95243.31;;;10.98;100.00
31771;BME280;18343;50.152;8.182;2023-03-14T10:31:13;95240.84;;;11.13;100.00
31771;BME280;18343;50.152;8.182;2023-03-14T10:34:01;95246.06;;;11.03;100.00
31771;BME280;18343;50.152;8.182;2023-03-14T10:36:46;95244.94;;;10.99;100.00
31771;BME280;18343;50.152;8.182;2023-03-14T10:39:42;95242.31;;;11.04;100.00
31771;BME280;18343;50.152;8.182;2023-03-14T10:42:31;95248.91;;;10.75;100.00
31771;BME280;18343;50.152;8.182;2023-03-14T10:45:35;95252.41;;;10.75;100.00
31771;BME280;18343;50.152;8.182;2023-03-14T10:48:23;95250.38;;;10.82;100.00
31771;BME280;18343;50.152;8.182;2023-03-14T10:51:10;95254.06;;;10.98;100.00
31771;BME280;18343;50.152;8.182;2023-03-14T10:53:58;95248.00;;;11.08;100.00
31771;BME280;18343;50.152;8.182;2023-03-14T10:56:43;95256.50;;;11.22;100.00
31771;BME280;18343;50.152;8.182;2023-03-14T10:59:34;95251.59;;;11.35;100.00
31771;BME280;18343;50.152;8.182;2023-03-14T11:02:45;95251.41;;;11.42;100.00
31771;BME280;18343;50.152;8.182;2023-03-14T11:05:41;95255.22;;;11.46;100.00
31771;BME280;18343;50.152;8.182;2023-03-14T11:08:33;95245.06;;;11.53;100.00
31771;BME280;18343;50.152;8.182;2023-03-14T11:11:25;95249.25;;;11.22;100.00
31771;BME280;18343;50.152;8.182;2023-03-14T11:14:24;95248.72;;;11.42;100.00
31771;BME280;18343;50.152;8.182;2023-03-14T11:17:16;95251.25;;;11.53;100.00
31771;BME280;18343;50.152;8.182;2023-03-14T11:20:14;95259.00;;;11.50;100.00
31771;BME280;18343;50.152;8.182;2023-03-14T11:23:08;95259.06;;;11.55;100.00
31771;BME280;18343;50.152;8.182;2023-03-14T11:26:01;95264.66;;;11.27;100.00
31771;BME280;18343;50.152;8.182;2023-03-14T11:28:58;95264.97;;;11.30;100.00
31771;BME280;18343;50.152;8.182;2023-03-14T11:31:44;95269.25;;;11.48;100.00
31771;BME280;18343;50.152;8.182;2023-03-14T11:34:36;95288.91;;;11.48;100.00
31771;BME280;18343;50.152;8.182;2023-03-14T11:37:28;95290.56;;;11.11;100.00
31771;BME280;18343;50.152;8.182;2023-03-14T11:40:18;95355.94;;;10.95;100.00
31771;BME280;18343;50.152;8.182;2023-03-14T11:43:13;95437.38;;;9.41;100.00
31771;BME280;18343;50.152;8.182;2023-03-14T11:46:05;95440.59;;;9.78;100.00
31771;BME280;18343;50.152;8.182;2023-03-14T11:49:02;95451.38;;;9.43;100.00
31771;BME280;18343;50.152;8.182;2023-03-14T11:51:51;95473.66;;;8.79;100.00
31771;BME280;18343;50.152;8.182;2023-03-14T11:54:42;95465.75;;;8.84;100.00
31771;BME280;18343;50.152;8.182;2023-03-14T11:57:28;95474.84;;;8.83;100.00
31771;BME280;18343;50.152;8.182;2023-03-14T12:00:17;95467.78;;;9.12;100.00
31771;BME280;18343;50.152;8.182;2023-03-14T12:03:11;95476.25;;;8.86;100.00
31771;BME280;18343;50.152;8.182;2023-03-14T12:06:08;95482.78;;;8.90;100.00
31771;BME280;18343;50.152;8.182;2023-03-14T12:08:58;95491.59;;;8.37;100.00
31771;BME280;18343;50.152;8.182;2023-03-14T12:11:49;95482.06;;;8.41;100.00
31771;BME280;18343;50.152;8.182;2023-03-14T12:14:36;95496.44;;;8.46;100.00
31771;BME280;18343;50.152;8.182;2023-03-14T12:17:24;95496.72;;;8.68;100.00
31771;BME280;18343;50.152;8.182;2023-03-14T12:20:18;95508.47;;;9.09;100.00
31771;BME280;18343;50.152;8.182;2023-03-14T12:23:05;95515.50;;;8.50;100.00
31771;BME280;18343;50.152;8.182;2023-03-14T12:26:16;95512.03;;;8.31;100.00
31771;BME280;18343;50.152;8.182;2023-03-14T12:29:15;95516.34;;;7.59;100.00
31771;BME280;18343;50.152;8.182;2023-03-14T12:32:23;95518.22;;;7.59;100.00
31771;BME280;18343;50.152;8.182;2023-03-14T12:35:35;95525.81;;;8.17;100.00
31771;BME280;18343;50.152;8.182;2023-03-14T12:38:29;95550.88;;;8.04;100.00
31771;BME280;18343;50.152;8.182;2023-03-14T12:41:20;95541.94;;;8.28;100.00
31771;BME280;18343;50.152;8.182;2023-03-14T12:44:43;95568.72;;;8.28;100.00
31771;BME280;18343;50.152;8.182;2023-03-14T12:47:54;95594.63;;;7.73;100.00
31771;BME280;18343;50.152;8.182;2023-03-14T12:50:44;95606.16;;;7.48;100.00
31771;BME280;18343;50.152;8.182;2023-03-14T12:54:17;95604.09;;;7.94;100.00
31771;BME280;18343;50.152;8.182;2023-03-14T12:57:20;95614.22;;;7.92;100.00
31771;BME280;18343;50.152;8.182;2023-03-14T13:00:20;95632.47;;;8.20;100.00
31771;BME280;18343;50.152;8.182;2023-03-14T13:03:18;95625.22;;;8.45;100.00
31771;BME280;18343;50.152;8.182;2023-03-14T13:06:05;95632.44;;;8.44;100.00
31771;BME280;18343;50.152;8.182;2023-03-14T13:08:49;95635.22;;;8.86;100.00
31771;BME280;18343;50.152;8.182;2023-03-14T13:11:34;95659.03;;;8.76;100.00
31771;BME280;18343;50.152;8.182;2023-03-14T13:14:19;95666.59;;;8.67;100.00
31771;BME280;18343;50.152;8.182;2023-03-14T13:17:09;95673.84;;;8.78;100.00
31771;BME280;18343;50.152;8.182;2023-03-14T13:19:59;95675.19;;;8.88;100.00
31771;BME280;18343;50.152;8.182;2023-03-14T13:22:47;95683.53;;;8.79;100.00
31771;BME280;18343;50.152;8.182;2023-03-14T13:25:34;95707.13;;;8.89;100.00
31771;BME280;18343;50.152;8.182;2023-03-14T13:28:20;95732.69;;;8.73;100.00
31771;BME280;18343;50.152;8.182;2023-03-14T13:31:05;95752.56;;;7.91;100.00
31771;BME280;18343;50.152;8.182;2023-03-14T13:34:04;95770.72;;;7.82;100.00
31771;BME280;18343;50.152;8.182;2023-03-14T13:36:52;95776.50;;;7.48;100.00
31771;BME280;18343;50.152;8.182;2023-03-14T13:39:40;95793.91;;;7.12;100.00
31771;BME280;18343;50.152;8.182;2023-03-14T13:42:27;95805.22;;;7.14;100.00
31771;BME280;18343;50.152;8.182;2023-03-14T13:45:14;95818.25;;;6.91;100.00
31771;BME280;18343;50.152;8.182;2023-03-14T13:47:58;95822.63;;;6.66;100.00
31771;BME280;18343;50.152;8.182;2023-03-14T13:50:51;95840.28;;;6.80;100.00
31771;BME280;18343;50.152;8.182;2023-03-14T13:53:43;95836.09;;;7.10;100.00
31771;BME280;18343;50.152;8.182;2023-03-14T13:56:31;95838.41;;;6.87;100.00
31771;BME280;18343;50.152;8.182;2023-03-14T13:59:24;95849.94;;;6.81;100.00
31771;BME280;18343;50.152;8.182;2023-03-14T14:02:13;95880.31;;;6.87;100.00
31771;BME280;18343;50.152;8.182;2023-03-14T14:04:59;95885.06;;;6.91;100.00
31771;BME280;18343;50.152;8.182;2023-03-14T14:07:46;95896.16;;;6.95;100.00
31771;BME280;18343;50.152;8.182;2023-03-14T14:10:36;95902.53;;;6.67;100.00
31771;BME280;18343;50.152;8.182;2023-03-14T14:13:22;95906.88;;;6.55;100.00
31771;BME280;18343;50.152;8.182;2023-03-14T14:16:09;95931.28;;;6.32;100.00
31771;BME280;18343;50.152;8.182;2023-03-14T14:18:55;95959.56;;;6.00;100.00
31771;BME280;18343;50.152;8.182;2023-03-14T14:21:41;95965.59;;;6.29;100.00
31771;BME280;18343;50.152;8.182;2023-03-14T14:24:30;95981.88;;;5.93;100.00
31771;BME280;18343;50.152;8.182;2023-03-14T14:27:17;95989.34;;;6.10;100.00
31771;BME280;18343;50.152;8.182;2023-03-14T14:30:21;95995.22;;;6.54;100.00
31771;BME280;18343;50.152;8.182;2023-03-14T14:33:20;96018.22;;;6.61;100.00
31771;BME280;18343;50.152;8.182;2023-03-14T14:36:11;96009.09;;;5.47;100.00
31771;BME280;18343;50.152;8.182;2023-03-14T14:39:01;96020.44;;;5.56;100.00
31771;BME280;18343;50.152;8.182;2023-03-14T14:41:51;96037.13;;;5.99;100.00
31771;BME280;18343;50.152;8.182;2023-03-14T14:44:36;96054.09;;;5.57;100.00